Details From LSGG - Geneva
To LSZS - Samedan
Flight Number -
Tags generated
Created
Modified
Stats Distance 157 nm / 292 km
Max Altitude 17,800 ft / 5,425 m
Waypoints 3
Social Downloads 2
Likes 0
Share VATSIM

Download

Looking for another format? Having issues loading an existing format? Contact us
Advertisement - Login to hide

Notes

Basic altitude profile: - Ascent Rate: 2500ft/min - Ascent Speed: 270kts - Cruise Altitude: 13000ft - Cruise Speed: 320kts - Descent Rate: 1800ft/min - Descent Speed: 250kts Options: - Use NATs: yes - Use PACOTS: yes - Use low airways: yes - Use high airways: no

Route

LSGG ALETO LSZS

ID Type Via Altitude Latitude Longitude Leg Dist Tot Dist Heading (true) Name
O LSGG APT - 0 ft / 0 m 46.23775˚ 6.10617˚ - 0 nm - Geneva
ALETO FIX - 17,800 ft / 5,425 m 46.38833˚ 7.87778˚ 74 nm 74 nm 82° / 84° -
O LSZS APT - 0 ft / 0 m 46.53421˚ 9.88394˚ 83 nm 157 nm 83° / 85° Samedan

Altitude Profile

Advertisement - Login to hide

LSGG

Details ICAO LSGG (GVA)
Name Geneva
Region Switzerland
Timezone Europe/Zurich (UTC+1.0)
Stats Elevation 1,410 ft / 430 m (AMSL)
Location 46.237755° 6.106173°
Runways 2
Magnetic Variation 1.739° E

METAR

LSGG 180920Z 26005KT 240V300 2600 -SN FEW004 BKN015 M01/M01 Q1023 R05/69 NOSIG

Decode

TAF

TAF TAF LSGG 180825Z 1809/1915 24008KT 1500 SN VV010 TX01/1814Z TNM01/1906Z TX03/1915Z BECMG 1813/1815 VRB02KT 8000 NSW OVC030

Decode

Departure Runways

ID Width Length Bearing (true) Bearing (mag) Surface Threshold Offset Overrun Length
05 180 ft / 55 m 12,796 ft / 3,900 m 45.43° 43.69° Concrete 1,079 ft / 329 m 66 ft / 20 m
05L 98 ft / 30 m 2,701 ft / 823 m 45.44° 43.70° Grass 610 ft / 186 m 0 ft / 0 m
23 180 ft / 55 m 12,796 ft / 3,900 m 225.45° 223.71° Concrete 0 ft / 0 m 66 ft / 20 m
23R 98 ft / 30 m 2,701 ft / 823 m 225.45° 223.71° Grass 997 ft / 304 m 0 ft / 0 m

LSZS

Details ICAO LSZS (SMV)
Name Samedan
Region Switzerland
Timezone Europe/Zurich (UTC+1.0)
Stats Elevation 5,600 ft / 1,707 m (AMSL)
Location 46.534207° 9.883938°
Runways 1
Magnetic Variation 2.658° E

METAR

LSZS 180920Z 25001KT 1200 SN SCT009 BKN021 M13/M15 Q1017 R03/4903// RMK H

Decode

TAF

Not found

Destination Runways

ID Width Length Bearing (true) Bearing (mag) Surface Threshold Offset Overrun Length
03 131 ft / 40 m 6,059 ft / 1,847 m 29.10° 26.44° Asphalt 0 ft / 0 m 0 ft / 0 m
21 131 ft / 40 m 6,059 ft / 1,847 m 209.10° 206.44° Asphalt 361 ft / 110 m 0 ft / 0 m

Popular Alternatives